SKPS Airport Information

Runway Information
Runway 02 Length 7585 ft width 130 ft
Elevation 5840 ft Threshold 200 ft Heading 16
Runway 20 Length 7585 ft Width 130 ft
Elevation 5840 ft Threshold 170 ft Heading 196
Airport Frequencies
Type RDO Name PASTO RDO Frequency 348.8 MHZ
Type TWR Name TWR Frequency 118 MHZ
Airport Navaids
Type VOR-DME Name Pasto Frequency 113400 KHZ
Type NDB Name Pasto Frequency 264 KHZ
Airport Weather Information & NOTAM
ADDS - METARS form results

(2138 UTC 05 July 2022)
Data provider http://aviationweather.gov/metar/data/
 
METAR text: SKPS 052100Z VRB05KT 9999 SCT025 SCT080 20/17 Q1018 RMK A3006
Conditions at: SKPS (PASTO/ANTONIO NA, CO) observed 2100 UTC 05 July 2022
Temperature: 20.0°C (68°F)
Dewpoint: 17.0°C (63°F) [RH = 83%]
Pressure (altimeter): 30.06 inches Hg (1018.0 mb)
Winds: variable direction winds at 6 MPH (5 knots; 2.6 m/s)
Visibility: 6 or more miles (10+ km)
Ceiling: at least 12,000 feet AGL
Clouds: scattered clouds at 2500 feet AGL
scattered clouds at 8000 feet AGL
Weather: no significant weather observed at this time